Time;durP1;ratioP1;P1;durP2;ratioP2;P2;SDS_P1;SDS_P2;PMS_P1;PMS_P2;Temp;Humidity;BMP_temperature;BMP_pressure;BME280_temperature;BME280_humidity;BME280_pressure;Samples;Min_cycle;Max_cycle;Signal;HPM_P1;HPM_P2
2021/07/02 00:02:07;;;;;;;13.80;11.83;;;16.20;99.90;;;;;;4992897;28;20643;-72
2021/07/02 00:04:33;;;;;;;13.17;11.70;;;16.10;99.90;;;;;;4992822;28;20182;-72
2021/07/02 00:06:59;;;;;;;13.23;11.53;;;16.10;99.90;;;;;;4992785;28;20186;-72
2021/07/02 00:09:24;;;;;;;13.80;11.53;;;16.10;99.90;;;;;;4992572;28;20536;-72
2021/07/02 00:11:50;;;;;;;15.40;11.90;;;16.10;99.90;;;;;;4992698;28;20180;-72
2021/07/02 00:14:15;;;;;;;16.70;14.03;;;16.10;99.90;;;;;;4992911;28;20169;-72
2021/07/02 00:16:41;;;;;;;14.00;11.00;;;16.10;99.90;;;;;;4992981;28;20253;-72
2021/07/02 00:19:06;;;;;;;16.70;12.13;;;16.20;99.90;;;;;;4992510;28;20201;-72
2021/07/02 00:21:32;;;;;;;18.07;13.43;;;16.20;99.90;;;;;;4992786;28;20175;-72
2021/07/02 00:23:57;;;;;;;17.07;13.57;;;16.20;99.90;;;;;;5000366;28;20188;-72
2021/07/02 00:26:23;;;;;;;13.80;11.57;;;16.20;99.90;;;;;;5000324;28;20765;-72
2021/07/02 00:28:48;;;;;;;15.67;13.50;;;16.30;99.90;;;;;;5011584;28;20197;-72
2021/07/02 00:31:14;;;;;;;19.77;15.10;;;16.20;99.90;;;;;;5012009;28;20259;-72
2021/07/02 00:33:39;;;;;;;20.80;13.40;;;16.20;99.90;;;;;;5006042;28;20173;-72
2021/07/02 00:36:05;;;;;;;19.20;14.20;;;16.20;99.90;;;;;;4991797;28;20600;-72
2021/07/02 00:38:30;;;;;;;18.10;14.50;;;16.20;99.90;;;;;;4992212;28;20194;-73
2021/07/02 00:40:56;;;;;;;20.83;14.20;;;16.30;99.90;;;;;;4992787;28;20256;-73
2021/07/02 00:43:22;;;;;;;19.33;16.33;;;16.30;99.90;;;;;;4992362;28;20170;-72
2021/07/02 00:45:47;;;;;;;20.07;14.23;;;16.30;99.90;;;;;;4992226;28;20257;-73
2021/07/02 00:48:13;;;;;;;18.47;15.10;;;16.40;99.90;;;;;;4998330;28;20284;-73
2021/07/02 00:50:40;;;;;;;20.70;16.63;;;16.30;99.90;;;;;;5011639;28;20507;-72
2021/07/02 00:53:06;;;;;;;23.97;17.77;;;16.40;99.90;;;;;;5011628;28;20499;-73
2021/07/02 00:55:32;;;;;;;23.87;17.87;;;16.30;99.90;;;;;;5007048;28;20505;-73
2021/07/02 00:57:58;;;;;;;24.50;17.80;;;16.40;99.90;;;;;;4996186;28;20597;-72
2021/07/02 01:00:24;;;;;;;25.10;18.90;;;16.40;99.90;;;;;;4997203;28;20427;-72
2021/07/02 01:02:49;;;;;;;26.37;19.57;;;16.40;99.90;;;;;;4992067;28;20258;-72
2021/07/02 01:05:15;;;;;;;29.57;20.40;;;16.40;99.90;;;;;;4992056;28;20654;-73
2021/07/02 01:07:42;;;;;;;20.23;16.37;;;16.40;99.90;;;;;;4991747;28;20747;-72
2021/07/02 01:10:10;;;;;;;26.60;20.00;;;16.40;99.90;;;;;;4974500;28;20977;-72
2021/07/02 01:12:36;;;;;;;29.87;18.37;;;16.40;99.90;;;;;;4992132;28;20414;-72
2021/07/02 01:15:02;;;;;;;32.33;21.77;;;16.40;99.90;;;;;;4991898;28;20406;-73
2021/07/02 01:17:27;;;;;;;30.33;20.17;;;16.40;99.90;;;;;;4989225;28;20244;-72
2021/07/02 01:19:54;;;;;;;28.37;19.87;;;16.40;99.90;;;;;;4991747;28;20826;-73
2021/07/02 01:22:25;;;;;;;29.30;19.77;;;16.50;99.90;;;;;;4991864;28;20174;-73
2021/07/02 01:24:51;;;;;;;33.20;21.43;;;16.50;99.90;;;;;;4991841;28;20441;-72
2021/07/02 01:27:17;;;;;;;28.20;20.70;;;16.50;99.90;;;;;;4991702;28;20428;-72
2021/07/02 01:29:44;;;;;;;25.00;18.90;;;16.50;99.90;;;;;;5002247;28;20519;-72
2021/07/02 01:32:10;;;;;;;30.83;20.93;;;16.50;99.90;;;;;;5011559;28;20402;-72
2021/07/02 01:34:36;;;;;;;28.57;20.47;;;16.50;99.90;;;;;;4998214;28;20807;-72
2021/07/02 01:37:02;;;;;;;38.73;22.13;;;16.50;99.90;;;;;;4991990;28;20510;-72
2021/07/02 01:39:27;;;;;;;28.57;20.37;;;16.50;99.90;;;;;;4991629;28;20551;-72
2021/07/02 01:41:53;;;;;;;30.63;20.00;;;16.50;99.90;;;;;;4992060;28;20170;-72
2021/07/02 01:44:18;;;;;;;32.37;22.33;;;16.60;99.90;;;;;;4991997;28;20167;-72
2021/07/02 01:46:44;;;;;;;31.40;18.90;;;16.50;99.90;;;;;;4993812;28;20174;-72
2021/07/02 01:49:10;;;;;;;28.23;19.87;;;16.50;99.90;;;;;;5009180;28;20206;-71
2021/07/02 01:51:35;;;;;;;32.63;21.67;;;16.60;99.90;;;;;;5014896;28;20425;-72
2021/07/02 01:54:01;;;;;;;28.93;21.00;;;16.60;99.90;;;;;;5015069;28;20657;-72
2021/07/02 01:56:26;;;;;;;29.90;20.50;;;16.60;99.90;;;;;;5015001;28;20180;-73
2021/07/02 01:58:53;;;;;;;30.43;21.23;;;16.60;99.90;;;;;;4997162;28;20255;-72
2021/07/02 02:01:19;;;;;;;33.67;20.90;;;16.60;99.90;;;;;;5015084;28;20634;-72
2021/07/02 02:03:45;;;;;;;26.43;18.97;;;16.70;99.90;;;;;;5015382;28;20448;-72
2021/07/02 02:06:10;;;;;;;27.87;20.43;;;16.70;99.90;;;;;;5014932;28;20273;-72
2021/07/02 02:08:36;;;;;;;36.20;23.60;;;16.70;99.90;;;;;;5014681;28;20574;-72
2021/07/02 02:11:01;;;;;;;28.73;22.17;;;16.70;99.90;;;;;;5014368;28;20687;-72
2021/07/02 02:13:27;;;;;;;30.47;21.30;;;16.70;99.90;;;;;;4993951;28;20186;-72
2021/07/02 02:15:52;;;;;;;31.27;20.67;;;16.70;99.90;;;;;;4975678;28;20174;-71
2021/07/02 02:18:18;;;;;;;31.90;22.27;;;16.70;99.90;;;;;;4975385;28;20189;-72
2021/07/02 02:20:45;;;;;;;31.53;20.90;;;16.70;99.90;;;;;;4975390;28;20542;-72
2021/07/02 02:23:10;;;;;;;33.43;21.13;;;16.70;99.90;;;;;;4989711;28;20434;-72
2021/07/02 02:25:36;;;;;;;35.17;21.90;;;16.70;99.90;;;;;;5006044;28;20512;-71
2021/07/02 02:28:01;;;;;;;28.20;21.50;;;16.80;99.90;;;;;;5014175;28;20203;-71
2021/07/02 02:30:28;;;;;;;29.60;20.57;;;16.70;99.90;;;;;;5014528;28;20289;-72
2021/07/02 02:32:53;;;;;;;30.87;23.03;;;16.70;99.90;;;;;;5014110;28;20173;-73
2021/07/02 02:35:19;;;;;;;27.07;23.03;;;16.80;99.90;;;;;;5014244;28;20424;-71
2021/07/02 02:37:45;;;;;;;30.53;22.40;;;16.70;99.90;;;;;;5014374;28;20197;-71
2021/07/02 02:40:11;;;;;;;29.33;19.50;;;16.70;99.90;;;;;;5014571;28;20173;-71
2021/07/02 02:42:36;;;;;;;29.70;20.07;;;16.70;99.90;;;;;;5014017;28;20253;-71
2021/07/02 02:45:03;;;;;;;24.27;17.63;;;16.70;99.90;;;;;;5014175;28;20803;-72
2021/07/02 02:47:29;;;;;;;28.53;20.33;;;16.80;99.90;;;;;;5013751;28;20340;-71
2021/07/02 02:49:54;;;;;;;28.03;18.43;;;16.80;99.90;;;;;;5014042;28;20542;-72
2021/07/02 02:52:20;;;;;;;19.87;17.80;;;16.80;99.90;;;;;;5013887;28;20178;-73
2021/07/02 02:54:45;;;;;;;19.53;17.23;;;16.80;99.90;;;;;;4996569;28;20177;-72
2021/07/02 02:57:11;;;;;;;29.10;20.30;;;16.80;99.90;;;;;;5013654;28;20611;-72
2021/07/02 02:59:37;;;;;;;17.77;15.80;;;16.80;99.90;;;;;;5013671;28;20191;-71
2021/07/02 03:02:04;;;;;;;27.83;16.80;;;16.80;99.90;;;;;;5013849;28;20674;-70
2021/07/02 03:04:31;;;;;;;22.47;16.23;;;16.90;99.90;;;;;;5013794;28;20724;-70
2021/07/02 03:06:56;;;;;;;19.60;14.83;;;16.80;99.90;;;;;;5013369;28;20408;-71
2021/07/02 03:09:22;;;;;;;19.17;17.17;;;16.80;99.90;;;;;;5013319;28;20429;-71
2021/07/02 03:11:51;;;;;;;20.50;16.70;;;16.90;99.90;;;;;;5013554;28;20208;-70
2021/07/02 03:14:20;;;;;;;23.83;14.50;;;16.90;99.90;;;;;;5013606;28;20184;-72
2021/07/02 03:16:46;;;;;;;17.30;15.17;;;16.90;99.90;;;;;;5013655;28;20410;-73
2021/07/02 03:19:12;;;;;;;18.60;15.47;;;16.80;99.90;;;;;;5013440;28;20421;-73
2021/07/02 03:21:37;;;;;;;18.20;14.13;;;16.90;99.90;;;;;;5013614;28;20423;-73
2021/07/02 03:24:03;;;;;;;16.43;14.67;;;16.80;99.90;;;;;;5002973;28;20174;-72
2021/07/02 03:26:28;;;;;;;16.60;15.03;;;16.80;99.90;;;;;;5010535;28;20177;-72
2021/07/02 03:28:54;;;;;;;16.03;14.33;;;16.80;99.90;;;;;;5013138;28;20246;-72
2021/07/02 03:31:20;;;;;;;19.73;14.63;;;16.80;99.90;;;;;;5013597;28;20572;-73
2021/07/02 03:33:45;;;;;;;16.33;14.60;;;16.80;99.90;;;;;;5013756;28;20317;-73
2021/07/02 03:36:11;;;;;;;15.80;13.27;;;16.90;99.90;;;;;;5013629;28;20835;-73
2021/07/02 03:38:36;;;;;;;14.47;13.03;;;16.80;99.90;;;;;;5012785;28;20705;-73
2021/07/02 03:41:02;;;;;;;14.93;13.13;;;16.80;99.90;;;;;;4995316;28;20648;-72
2021/07/02 03:43:27;;;;;;;17.30;13.43;;;16.90;99.90;;;;;;5013166;28;20174;-72
2021/07/02 03:45:53;;;;;;;13.70;12.30;;;16.90;99.90;;;;;;5013153;28;20224;-71
2021/07/02 03:48:18;;;;;;;14.57;12.30;;;16.90;99.90;;;;;;5012802;28;20203;-71
2021/07/02 03:50:44;;;;;;;13.47;11.33;;;16.90;99.90;;;;;;4995153;28;20201;-70
2021/07/02 03:53:10;;;;;;;12.93;11.63;;;16.90;99.90;;;;;;5012717;28;20177;-72
2021/07/02 03:55:35;;;;;;;14.40;12.20;;;16.90;99.90;;;;;;5012988;28;20174;-70
2021/07/02 03:58:02;;;;;;;18.50;13.70;;;16.90;99.90;;;;;;5012498;28;20236;-70
2021/07/02 04:00:27;;;;;;;14.73;11.87;;;16.90;99.90;;;;;;5012702;28;20516;-70
2021/07/02 04:02:53;;;;;;;13.07;11.17;;;17.00;99.90;;;;;;5012340;28;20472;-70
2021/07/02 04:05:18;;;;;;;15.53;12.70;;;17.00;99.90;;;;;;5012718;28;20694;-71
2021/07/02 04:07:44;;;;;;;13.73;12.40;;;16.90;99.90;;;;;;4994514;28;20563;-71
2021/07/02 04:10:10;;;;;;;12.20;10.90;;;16.90;99.90;;;;;;5011517;28;20205;-70
2021/07/02 04:12:35;;;;;;;13.77;11.03;;;17.10;99.90;;;;;;5012284;28;20674;-71
2021/07/02 04:15:01;;;;;;;13.10;11.80;;;17.00;99.90;;;;;;5012401;28;20182;-70
2021/07/02 04:17:26;;;;;;;12.20;10.80;;;17.10;99.90;;;;;;5012115;28;20674;-71
2021/07/02 04:19:52;;;;;;;12.23;9.97;;;17.10;99.90;;;;;;5012319;28;20261;-70
2021/07/02 04:22:17;;;;;;;14.33;11.77;;;17.10;99.90;;;;;;5009119;28;20719;-71
2021/07/02 04:24:43;;;;;;;11.27;10.17;;;17.10;99.90;;;;;;5001814;28;20175;-71
2021/07/02 04:27:09;;;;;;;15.40;11.53;;;17.20;99.90;;;;;;5011937;28;20189;-71
2021/07/02 04:29:34;;;;;;;13.43;11.93;;;17.20;99.90;;;;;;5012044;28;20201;-70
2021/07/02 04:32:00;;;;;;;11.83;10.60;;;17.10;99.90;;;;;;5012065;28;20259;-71
2021/07/02 04:34:25;;;;;;;15.37;10.87;;;17.10;99.90;;;;;;5011864;28;20163;-71
2021/07/02 04:36:51;;;;;;;11.73;10.27;;;17.00;99.90;;;;;;5011896;28;20241;-72
2021/07/02 04:39:18;;;;;;;17.93;9.80;;;17.20;99.90;;;;;;5011939;28;20288;-71
2021/07/02 04:41:44;;;;;;;10.33;9.33;;;17.20;99.90;;;;;;5012140;28;20175;-71
2021/07/02 04:44:09;;;;;;;13.30;11.30;;;17.30;99.90;;;;;;5012142;28;20410;-72
2021/07/02 04:46:35;;;;;;;16.03;10.80;;;17.30;99.90;;;;;;5012069;28;20686;-71
2021/07/02 04:49:00;;;;;;;12.33;10.83;;;17.20;99.90;;;;;;5011932;28;20288;-71
2021/07/02 04:51:26;;;;;;;12.73;10.20;;;17.20;99.90;;;;;;5011721;28;20198;-71
2021/07/02 04:53:51;;;;;;;10.90;9.80;;;17.20;99.90;;;;;;5011938;28;20508;-71
2021/07/02 04:56:17;;;;;;;11.73;10.17;;;17.20;99.90;;;;;;5011885;28;20610;-71
2021/07/02 04:58:43;;;;;;;11.07;9.70;;;17.20;99.90;;;;;;5011812;28;20185;-71
2021/07/02 05:01:12;;;;;;;12.30;11.10;;;17.10;99.90;;;;;;5011965;28;20174;-71
2021/07/02 05:03:38;;;;;;;12.03;10.37;;;17.10;99.90;;;;;;5011925;28;20485;-72
2021/07/02 05:06:06;;;;;;;12.60;11.10;;;17.10;99.90;;;;;;5011724;28;20409;-72
2021/07/02 05:08:32;;;;;;;12.40;9.50;;;17.00;99.90;;;;;;5011737;28;20198;-72
2021/07/02 05:10:57;;;;;;;10.97;9.90;;;17.10;99.90;;;;;;5011596;28;20964;-71
2021/07/02 05:13:23;;;;;;;11.03;9.93;;;17.20;99.90;;;;;;5011664;28;20914;-72
2021/07/02 05:15:49;;;;;;;14.93;9.50;;;17.40;99.90;;;;;;5011742;28;20740;-72
2021/07/02 05:18:15;;;;;;;9.53;7.83;;;17.50;99.90;;;;;;5011587;28;20186;-71
2021/07/02 05:20:44;;;;;;;12.07;9.60;;;17.70;99.90;;;;;;5012149;28;20599;-71
2021/07/02 05:23:10;;;;;;;9.53;8.53;;;17.80;99.90;;;;;;5015755;28;20255;-72
2021/07/02 05:25:35;;;;;;;9.40;8.57;;;17.70;99.90;;;;;;5015680;28;20433;-72
2021/07/02 05:28:02;;;;;;;10.60;9.60;;;17.70;99.90;;;;;;5015262;28;20425;-72
2021/07/02 05:30:28;;;;;;;12.33;9.07;;;17.70;99.90;;;;;;5015444;28;20209;-72
2021/07/02 05:32:54;;;;;;;9.20;8.33;;;17.70;99.90;;;;;;5015300;28;20418;-71
2021/07/02 05:35:19;;;;;;;8.83;7.90;;;17.70;99.90;;;;;;5015132;28;20614;-72
2021/07/02 05:37:45;;;;;;;10.23;9.23;;;17.80;99.90;;;;;;5015254;28;20442;-73
2021/07/02 05:40:13;;;;;;;9.73;8.70;;;18.00;99.90;;;;;;5015272;28;20164;-72
2021/07/02 05:42:39;;;;;;;9.13;8.20;;;18.30;99.90;;;;;;5015341;28;20762;-71
2021/07/02 05:45:05;;;;;;;11.47;8.53;;;18.40;99.90;;;;;;5015098;28;20456;-72
2021/07/02 05:47:36;;;;;;;9.67;8.40;;;18.50;99.90;;;;;;5015043;28;20880;-71
2021/07/02 05:50:02;;;;;;;9.57;8.40;;;18.20;99.90;;;;;;5015020;28;20443;-72
2021/07/02 05:52:27;;;;;;;8.47;7.67;;;18.20;99.90;;;;;;5015022;28;20415;-72
2021/07/02 05:54:52;;;;;;;11.93;8.53;;;18.50;99.90;;;;;;5015022;28;20647;-71
2021/07/02 05:57:18;;;;;;;9.93;8.47;;;18.50;99.90;;;;;;5014882;28;20194;-71
2021/07/02 05:59:43;;;;;;;10.83;7.70;;;18.40;99.90;;;;;;5015041;28;20176;-72
2021/07/02 06:02:09;;;;;;;8.80;7.90;;;18.50;99.90;;;;;;4997194;28;20239;-71
2021/07/02 06:04:34;;;;;;;10.23;8.30;;;18.70;99.90;;;;;;5014715;28;20166;-71
2021/07/02 06:07:00;;;;;;;7.90;7.10;;;18.90;99.90;;;;;;5014625;28;20259;-71
2021/07/02 06:09:25;;;;;;;11.80;9.13;;;18.90;99.90;;;;;;5014666;28;20195;-71
2021/07/02 06:11:52;;;;;;;9.37;7.07;;;19.00;99.90;;;;;;5015019;28;20660;-71
2021/07/02 06:14:17;;;;;;;8.37;7.53;;;19.00;99.90;;;;;;5014746;28;20640;-71
2021/07/02 06:16:42;;;;;;;8.40;7.30;;;19.20;99.90;;;;;;5014536;28;20411;-71
2021/07/02 06:19:08;;;;;;;9.47;7.40;;;19.00;99.90;;;;;;5014402;28;20189;-71
2021/07/02 06:21:33;;;;;;;8.83;7.17;;;19.10;99.90;;;;;;5014588;28;20187;-70
2021/07/02 06:23:59;;;;;;;9.23;6.80;;;19.40;99.90;;;;;;5014549;28;20713;-71
2021/07/02 06:26:24;;;;;;;6.63;6.07;;;19.80;99.90;;;;;;5014430;28;20170;-71
2021/07/02 06:28:50;;;;;;;7.10;6.40;;;20.30;99.90;;;;;;5014296;28;20203;-71
2021/07/02 06:31:15;;;;;;;7.83;6.20;;;20.60;99.90;;;;;;5014344;28;20287;-71
2021/07/02 06:33:41;;;;;;;9.67;5.70;;;20.90;99.90;;;;;;5013222;28;20239;-71
2021/07/02 06:36:06;;;;;;;7.13;6.43;;;20.80;99.90;;;;;;5004368;28;20683;-72
2021/07/02 06:38:32;;;;;;;8.30;6.40;;;20.60;99.90;;;;;;4985598;28;20269;-71
2021/07/02 06:40:57;;;;;;;6.87;6.27;;;20.60;99.90;;;;;;4975056;28;20174;-71
2021/07/02 06:43:23;;;;;;;11.77;6.57;;;20.60;99.90;;;;;;4989151;28;20693;-71
2021/07/02 06:45:48;;;;;;;8.90;6.63;;;20.30;99.90;;;;;;4994785;28;20212;-71
2021/07/02 06:48:14;;;;;;;7.10;6.40;;;20.00;99.90;;;;;;4993991;28;20189;-71
2021/07/02 06:50:43;;;;;;;6.80;6.10;;;20.10;99.90;;;;;;4994333;28;20273;-71
2021/07/02 06:53:09;;;;;;;7.67;6.87;;;20.00;99.90;;;;;;4994304;28;20162;-71
2021/07/02 06:55:35;;;;;;;11.60;6.87;;;20.00;99.90;;;;;;5002577;28;20433;-71
2021/07/02 06:58:03;;;;;;;8.83;5.87;;;20.30;99.90;;;;;;5007065;28;20559;-71
2021/07/02 07:00:29;;;;;;;8.10;7.40;;;20.40;99.90;;;;;;5013579;28;20656;-70
2021/07/02 07:02:55;;;;;;;8.90;6.13;;;20.60;99.90;;;;;;5013502;28;20410;-71
2021/07/02 07:05:21;;;;;;;6.93;5.20;;;21.20;99.90;;;;;;5013594;28;20978;-70
2021/07/02 07:07:47;;;;;;;5.70;5.20;;;21.50;99.90;;;;;;5013495;28;20458;-70
2021/07/02 07:10:12;;;;;;;6.20;5.23;;;21.70;99.90;;;;;;5013484;28;20268;-71
2021/07/02 07:12:38;;;;;;;6.63;5.70;;;21.20;99.90;;;;;;5013522;28;20175;-71
2021/07/02 07:15:04;;;;;;;8.80;4.87;;;21.30;99.90;;;;;;5013346;28;20178;-70
2021/07/02 07:17:31;;;;;;;7.83;5.43;;;21.30;99.90;;;;;;5013072;28;20185;-71
2021/07/02 07:19:56;;;;;;;7.03;4.30;;;20.90;99.90;;;;;;5013579;28;20405;-71
2021/07/02 07:22:22;;;;;;;6.30;5.50;;;21.30;99.90;;;;;;5013404;28;20952;-71
2021/07/02 07:24:47;;;;;;;5.50;4.37;;;22.50;99.90;;;;;;4995418;28;20201;-70
2021/07/02 07:27:13;;;;;;;4.70;4.20;;;23.20;99.90;;;;;;5013160;28;20702;-71
2021/07/02 07:29:38;;;;;;;6.57;5.27;;;24.10;99.90;;;;;;5013054;28;20171;-71
2021/07/02 07:32:04;;;;;;;4.73;4.23;;;24.60;99.90;;;;;;5006543;28;20203;-71
2021/07/02 07:35:12;;;;;;;5.33;4.33;;;24.90;99.90;;;;;;5010042;28;20207;-72
2021/07/02 07:37:23;;;;;;;4.40;3.57;;;25.40;99.90;;;;;;5009835;28;20403;-71
2021/07/02 07:39:50;;;;;;;5.10;4.00;;;25.50;99.90;;;;;;5013026;28;20421;-71
2021/07/02 07:42:16;;;;;;;4.30;4.00;;;25.60;99.90;;;;;;4995302;28;20415;-71
2021/07/02 07:44:42;;;;;;;8.30;4.20;;;26.30;99.90;;;;;;5012642;28;20765;-71
2021/07/02 07:47:09;;;;;;;4.97;4.50;;;26.10;99.90;;;;;;5013021;28;20400;-71
2021/07/02 07:49:35;;;;;;;5.30;4.70;;;26.10;99.90;;;;;;4995183;28;20168;-71
2021/07/02 07:52:12;;;;;;;5.63;5.13;;;26.50;99.90;;;;;;4992232;28;20523;-70
2021/07/02 07:54:39;;;;;;;4.97;4.43;;;26.50;99.90;;;;;;4993211;28;20808;-71
2021/07/02 07:57:04;;;;;;;4.60;4.20;;;27.50;99.90;;;;;;4972307;28;20416;-71
2021/07/02 07:59:30;;;;;;;4.83;3.80;;;27.40;99.90;;;;;;4973761;28;20425;-71
2021/07/02 08:01:56;;;;;;;4.60;4.20;;;26.70;99.90;;;;;;4978317;28;20184;-72
2021/07/02 08:04:21;;;;;;;5.50;4.90;;;24.70;99.90;;;;;;4993100;28;20400;-72
2021/07/02 08:06:49;;;;;;;5.03;4.63;;;24.40;99.90;;;;;;4992725;28;20173;-73
2021/07/02 08:09:15;;;;;;;6.93;5.73;;;24.80;99.90;;;;;;4992841;28;20213;-73
2021/07/02 08:11:41;;;;;;;5.90;5.17;;;25.10;99.90;;;;;;5002642;28;21034;-72
2021/07/02 08:14:07;;;;;;;6.43;4.90;;;25.00;99.90;;;;;;4986628;28;20195;-72
2021/07/02 08:16:33;;;;;;;7.20;4.23;;;25.20;99.90;;;;;;4985007;28;20471;-71
2021/07/02 08:18:59;;;;;;;10.83;9.77;;;25.20;99.90;;;;;;4998569;28;21030;-72
2021/07/02 08:21:25;;;;;;;5.80;5.30;;;25.50;99.90;;;;;;4992366;28;20416;-72
2021/07/02 08:23:51;;;;;;;11.13;10.13;;;26.00;99.90;;;;;;4992255;28;20507;-72
2021/07/02 08:26:18;;;;;;;4.77;4.30;;;25.30;99.90;;;;;;4992116;28;20198;-72
2021/07/02 08:31:27;;;;;;;6.10;4.67;;;24.10;99.90;;;;;;4990852;28;20537;-72
2021/07/02 08:33:52;;;;;;;10.30;5.23;;;24.00;99.90;;;;;;4992326;28;20414;-72
2021/07/02 08:36:18;;;;;;;8.83;4.90;;;22.90;99.90;;;;;;4991966;28;20232;-72
2021/07/02 08:38:43;;;;;;;6.33;5.70;;;22.40;99.90;;;;;;4991791;28;20210;-72
2021/07/02 08:41:13;;;;;;;8.87;5.17;;;22.80;99.90;;;;;;4992107;28;20552;-71
2021/07/02 08:43:40;;;;;;;5.20;4.70;;;24.00;99.90;;;;;;4991845;28;20610;-73
2021/07/02 08:46:07;;;;;;;4.67;4.20;;;24.60;99.90;;;;;;4997112;28;20433;-72
2021/07/02 08:48:33;;;;;;;6.30;3.83;;;24.20;99.90;;;;;;4989857;28;20454;-71
2021/07/02 08:50:59;;;;;;;4.73;4.27;;;24.60;99.90;;;;;;4972476;28;20447;-72
2021/07/02 08:53:25;;;;;;;4.10;3.80;;;25.20;99.90;;;;;;4980860;28;20474;-73
2021/07/02 08:55:50;;;;;;;4.60;3.73;;;25.50;99.90;;;;;;4991442;28;20175;-73
2021/07/02 08:58:16;;;;;;;4.67;3.73;;;26.40;99.90;;;;;;4991726;28;20438;-71
2021/07/02 09:00:43;;;;;;;3.23;2.93;;;26.20;99.90;;;;;;4991666;28;20181;-70
2021/07/02 09:03:31;;;;;;;4.07;3.70;;;26.40;99.90;;;;;;4991684;28;20183;-71
2021/07/02 09:06:14;;;;;;;4.60;3.87;;;25.80;99.90;;;;;;4990677;28;20411;-71
2021/07/02 09:08:56;;;;;;;19.43;16.60;;;25.60;99.90;;;;;;4991071;28;20522;-71
2021/07/02 09:11:24;;;;;;;15.40;13.93;;;25.20;99.90;;;;;;4991850;28;20447;-71
2021/07/02 09:13:50;;;;;;;9.83;7.70;;;24.10;99.90;;;;;;4991737;28;20925;-71
2021/07/02 09:16:23;;;;;;;14.17;12.17;;;24.00;99.90;;;;;;4991617;28;20501;-71
2021/07/02 09:18:49;;;;;;;8.97;4.80;;;23.70;99.90;;;;;;4991539;28;20188;-72
2021/07/02 09:21:28;;;;;;;4.23;3.83;;;24.50;99.90;;;;;;4991845;28;20766;-72
2021/07/02 09:23:57;;;;;;;5.63;4.20;;;24.60;99.90;;;;;;4998700;28;20187;-72
2021/07/02 09:26:43;;;;;;;4.47;4.07;;;25.10;99.90;;;;;;4982919;28;20932;-71
2021/07/02 09:29:18;;;;;;;4.47;4.00;;;24.70;99.90;;;;;;4971816;28;20425;-71
2021/07/02 09:31:54;;;;;;;4.53;4.17;;;24.70;99.90;;;;;;5002214;28;20552;-71
2021/07/02 09:34:20;;;;;;;4.57;4.17;;;25.70;99.90;;;;;;5011024;28;20403;-71
2021/07/02 09:36:46;;;;;;;4.13;3.83;;;25.90;99.90;;;;;;5010989;28;20461;-71
2021/07/02 09:39:31;;;;;;;4.10;3.80;;;25.10;99.90;;;;;;5010980;28;20613;-71
2021/07/02 09:41:56;;;;;;;4.50;4.10;;;24.50;99.90;;;;;;4972212;28;20212;-71
2021/07/02 09:44:22;;;;;;;4.40;4.00;;;23.90;99.90;;;;;;4979951;28;20924;-72
2021/07/02 09:46:48;;;;;;;5.53;3.93;;;25.50;99.90;;;;;;4995516;28;20181;-71
2021/07/02 09:49:24;;;;;;;6.80;4.80;;;25.80;99.90;;;;;;5000117;28;20276;-71
2021/07/02 09:51:50;;;;;;;5.10;4.67;;;25.70;99.90;;;;;;4991519;28;21012;-71
2021/07/02 09:54:15;;;;;;;5.40;4.83;;;25.30;99.90;;;;;;4998335;28;20419;-72
2021/07/02 09:56:41;;;;;;;5.10;4.70;;;24.50;99.90;;;;;;5002053;28;20226;-72
2021/07/02 09:59:16;;;;;;;5.50;5.10;;;24.40;99.90;;;;;;4988969;28;20701;-73
2021/07/02 10:01:42;;;;;;;5.80;5.30;;;25.40;99.90;;;;;;4990285;28;20336;-71
2021/07/02 10:04:09;;;;;;;6.27;5.33;;;25.10;99.90;;;;;;4991007;28;20491;-72
2021/07/02 10:06:35;;;;;;;5.73;4.90;;;25.00;99.90;;;;;;4990089;28;20181;-72
2021/07/02 10:09:03;;;;;;;5.50;5.00;;;24.80;99.90;;;;;;4993489;28;20424;-71
2021/07/02 10:11:29;;;;;;;5.57;4.87;;;24.10;99.90;;;;;;4995015;28;20212;-72
2021/07/02 10:13:57;;;;;;;4.90;4.50;;;24.10;99.90;;;;;;4984902;28;20763;-72
2021/07/02 10:16:23;;;;;;;5.30;4.80;;;24.80;99.90;;;;;;4985656;28;20437;-72
2021/07/02 10:18:52;;;;;;;4.73;4.37;;;24.80;99.90;;;;;;4994496;28;20469;-73
2021/07/02 10:21:19;;;;;;;5.00;4.57;;;25.50;99.90;;;;;;4974882;28;20176;-70
2021/07/02 10:23:48;;;;;;;5.07;4.60;;;24.90;99.90;;;;;;4976370;28;20483;-70
2021/07/02 10:26:14;;;;;;;5.17;4.67;;;25.10;99.90;;;;;;4987749;28;20452;-72
2021/07/02 10:28:42;;;;;;;5.73;5.03;;;24.70;99.90;;;;;;4987661;28;20852;-70
2021/07/02 10:31:10;;;;;;;7.00;6.30;;;24.40;99.90;;;;;;4979735;28;20482;-71
2021/07/02 10:33:42;;;;;;;7.90;7.07;;;24.40;99.90;;;;;;4978984;28;20442;-71
2021/07/02 10:36:08;;;;;;;5.90;5.33;;;25.00;99.90;;;;;;4981779;28;20803;-71
2021/07/02 10:38:51;;;;;;;6.47;5.83;;;25.30;99.90;;;;;;4987828;28;20449;-71
2021/07/02 10:41:19;;;;;;;5.27;4.87;;;24.30;99.90;;;;;;4989421;28;20461;-70
2021/07/02 10:44:05;;;;;;;6.10;5.20;;;24.20;99.90;;;;;;4999826;28;20821;-72
2021/07/02 10:46:34;;;;;;;10.83;9.40;;;24.30;99.90;;;;;;4991373;28;20412;-70
2021/07/02 10:49:10;;;;;;;7.83;5.63;;;24.60;99.90;;;;;;4974705;28;20575;-74
2021/07/02 10:51:36;;;;;;;14.20;12.10;;;24.80;99.90;;;;;;4980559;28;20468;-71
2021/07/02 10:54:20;;;;;;;7.43;6.70;;;24.50;99.90;;;;;;4974068;28;20420;-71
2021/07/02 10:56:49;;;;;;;8.87;7.90;;;24.80;99.90;;;;;;4977578;28;20434;-70
2021/07/02 10:59:15;;;;;;;22.43;19.83;;;24.50;99.90;;;;;;4995524;28;20435;-69
2021/07/02 11:02:09;;;;;;;4.63;4.00;;;24.70;99.90;;;;;;4994942;28;20777;-70
2021/07/02 11:04:43;;;;;;;5.43;4.97;;;24.10;99.90;;;;;;4997192;28;20182;-72
2021/07/02 11:07:08;;;;;;;15.10;12.80;;;24.60;99.90;;;;;;5014567;28;20815;-71
2021/07/02 11:09:49;;;;;;;5.67;5.17;;;24.80;99.90;;;;;;5005003;28;20632;-71
2021/07/02 11:12:36;;;;;;;10.03;9.10;;;24.60;99.90;;;;;;4992041;28;20662;-71
2021/07/02 11:15:02;;;;;;;11.70;9.40;;;25.10;99.90;;;;;;4994147;28;20423;-71
2021/07/02 11:17:49;;;;;;;7.33;6.73;;;24.70;99.90;;;;;;4994881;28;20974;-71
2021/07/02 11:20:17;;;;;;;11.30;9.30;;;24.90;99.90;;;;;;4994764;28;20409;-72
2021/07/02 11:22:53;;;;;;;9.17;8.37;;;24.20;99.90;;;;;;4996891;28;20521;-72
2021/07/02 11:25:46;;;;;;;4.73;4.13;;;24.40;99.90;;;;;;4998723;28;20421;-72
2021/07/02 11:28:21;;;;;;;5.20;4.47;;;24.30;99.90;;;;;;4974840;28;20433;-71
2021/07/02 11:30:48;;;;;;;8.40;6.27;;;24.30;99.90;;;;;;4988155;28;20570;-69
2021/07/02 11:33:13;;;;;;;6.20;4.53;;;24.40;99.90;;;;;;4994422;28;20411;-70
2021/07/02 11:35:48;;;;;;;4.77;4.37;;;24.10;99.90;;;;;;4994693;28;20423;-70
2021/07/02 11:38:16;;;;;;;7.03;5.80;;;24.20;99.90;;;;;;4987776;28;20191;-70
2021/07/02 11:40:50;;;;;;;6.40;5.80;;;24.30;99.90;;;;;;5005886;28;20415;-71
2021/07/02 11:43:20;;;;;;;9.10;4.57;;;24.30;99.90;;;;;;5006466;28;20429;-70
2021/07/02 11:46:01;;;;;;;6.30;5.03;;;24.50;99.90;;;;;;4980891;28;20420;-70
2021/07/02 11:48:28;;;;;;;22.47;20.07;;;24.70;99.90;;;;;;4956186;28;20438;-70
2021/07/02 11:50:54;;;;;;;9.03;4.60;;;25.10;99.90;;;;;;4973856;28;20465;-70
2021/07/02 11:53:36;;;;;;;34.40;30.53;;;24.90;99.90;;;;;;4973602;28;20408;-71
2021/07/02 11:56:11;;;;;;;31.50;28.10;;;25.60;99.90;;;;;;4986469;28;20183;-70
2021/07/02 11:58:42;;;;;;;11.27;10.20;;;26.00;99.90;;;;;;4992688;28;20844;-70
2021/07/02 12:01:10;;;;;;;6.70;4.90;;;26.20;99.90;;;;;;4983012;28;20444;-70
2021/07/02 12:03:37;;;;;;;25.80;23.10;;;25.40;99.90;;;;;;4975896;28;20762;-70
2021/07/02 12:06:04;;;;;;;5.30;4.80;;;25.40;99.90;;;;;;4993082;28;20407;-70
2021/07/02 12:08:32;;;;;;;5.07;4.60;;;24.20;99.90;;;;;;4992570;28;20428;-69
2021/07/02 12:11:00;;;;;;;9.07;6.37;;;24.10;99.90;;;;;;4992742;28;20503;-70
2021/07/02 12:13:27;;;;;;;25.37;19.87;;;24.80;99.90;;;;;;5000453;28;20419;-70
2021/07/02 12:16:06;;;;;;;5.50;5.00;;;25.30;99.90;;;;;;5004782;28;20418;-71
2021/07/02 12:18:32;;;;;;;8.90;8.10;;;24.60;99.90;;;;;;4994525;28;20443;-70
2021/07/02 12:21:03;;;;;;;5.83;5.00;;;24.00;99.90;;;;;;4992772;28;20412;-71
2021/07/02 12:23:30;;;;;;;8.63;6.80;;;24.50;99.90;;;;;;4980410;28;20986;-70
2021/07/02 12:26:13;;;;;;;5.57;4.17;;;24.80;99.90;;;;;;4992855;28;20438;-70
2021/07/02 12:28:58;;;;;;;7.70;6.57;;;24.20;99.90;;;;;;4962464;28;20447;-70
2021/07/02 12:31:35;;;;;;;5.80;5.30;;;24.60;99.90;;;;;;4987513;28;20459;-70
2021/07/02 12:34:03;;;;;;;8.00;6.37;;;24.20;99.90;;;;;;4992304;28;20418;-71
2021/07/02 12:36:30;;;;;;;11.03;10.00;;;24.20;99.90;;;;;;4992774;28;20934;-70
2021/07/02 12:39:05;;;;;;;5.97;5.43;;;24.60;99.90;;;;;;5009536;28;20941;-71
2021/07/02 12:41:35;;;;;;;11.93;10.53;;;24.60;99.90;;;;;;5001847;28;20425;-70
2021/07/02 12:44:01;;;;;;;13.57;9.27;;;24.80;99.90;;;;;;4992590;28;20464;-71